sensor_id;sensor_type;location;lat;lon;timestamp;temperature;humidity
7512;DHT22;9999;48.780;9.146;2023-09-19T00:00:21;17.00;99.90
7512;DHT22;9999;48.780;9.146;2023-09-19T00:02:54;16.90;99.90
7512;DHT22;9999;48.780;9.146;2023-09-19T00:05:25;16.90;99.90
7512;DHT22;9999;48.780;9.146;2023-09-19T00:07:54;16.90;99.90
7512;DHT22;9999;48.780;9.146;2023-09-19T00:10:22;16.90;99.90
7512;DHT22;9999;48.780;9.146;2023-09-19T00:12:50;16.90;99.90
7512;DHT22;9999;48.780;9.146;2023-09-19T00:15:19;16.90;99.90
7512;DHT22;9999;48.780;9.146;2023-09-19T00:17:46;16.90;99.90
7512;DHT22;9999;48.780;9.146;2023-09-19T00:20:13;16.90;99.90
7512;DHT22;9999;48.780;9.146;2023-09-19T00:22:43;16.80;99.90
7512;DHT22;9999;48.780;9.146;2023-09-19T00:25:10;16.90;99.90
7512;DHT22;9999;48.780;9.146;2023-09-19T00:27:38;16.80;99.90
7512;DHT22;9999;48.780;9.146;2023-09-19T00:30:08;16.80;99.90
7512;DHT22;9999;48.780;9.146;2023-09-19T00:32:41;16.80;99.90
7512;DHT22;9999;48.780;9.146;2023-09-19T00:35:08;16.70;99.90
7512;DHT22;9999;48.780;9.146;2023-09-19T00:37:36;16.70;99.90
7512;DHT22;9999;48.780;9.146;2023-09-19T00:40:06;16.70;99.90
7512;DHT22;9999;48.780;9.146;2023-09-19T00:42:37;16.70;99.90
7512;DHT22;9999;48.780;9.146;2023-09-19T00:45:06;16.80;99.90
7512;DHT22;9999;48.780;9.146;2023-09-19T00:47:35;16.80;99.90
7512;DHT22;9999;48.780;9.146;2023-09-19T00:50:04;16.70;99.90
7512;DHT22;9999;48.780;9.146;2023-09-19T00:52:34;16.70;99.90
7512;DHT22;9999;48.780;9.146;2023-09-19T00:55:03;16.70;99.90
7512;DHT22;9999;48.780;9.146;2023-09-19T00:57:30;16.60;99.90
7512;DHT22;9999;48.780;9.146;2023-09-19T01:00:00;16.70;99.90
7512;DHT22;9999;48.780;9.146;2023-09-19T01:02:31;16.60;99.90
7512;DHT22;9999;48.780;9.146;2023-09-19T01:04:58;16.60;99.90
7512;DHT22;9999;48.780;9.146;2023-09-19T01:07:26;16.60;99.90
7512;DHT22;9999;48.780;9.146;2023-09-19T01:09:55;16.60;99.90
7512;DHT22;9999;48.780;9.146;2023-09-19T01:12:30;16.70;99.90
7512;DHT22;9999;48.780;9.146;2023-09-19T01:15:02;16.60;99.90
7512;DHT22;9999;48.780;9.146;2023-09-19T01:17:37;16.70;99.90
7512;DHT22;9999;48.780;9.146;2023-09-19T01:20:22;16.70;99.90
7512;DHT22;9999;48.780;9.146;2023-09-19T01:23:00;16.70;99.90
7512;DHT22;9999;48.780;9.146;2023-09-19T01:26:06;16.60;99.90
7512;DHT22;9999;48.780;9.146;2023-09-19T01:28:45;16.70;99.90
7512;DHT22;9999;48.780;9.146;2023-09-19T01:31:14;16.70;99.90
7512;DHT22;9999;48.780;9.146;2023-09-19T01:33:54;16.70;99.90
7512;DHT22;9999;48.780;9.146;2023-09-19T01:36:25;16.70;99.90
7512;DHT22;9999;48.780;9.146;2023-09-19T01:38:53;16.70;99.90
7512;DHT22;9999;48.780;9.146;2023-09-19T01:41:25;16.70;99.90
7512;DHT22;9999;48.780;9.146;2023-09-19T01:43:52;16.60;99.90
7512;DHT22;9999;48.780;9.146;2023-09-19T01:46:25;16.70;99.90
7512;DHT22;9999;48.780;9.146;2023-09-19T01:49:04;16.70;99.90
7512;DHT22;9999;48.780;9.146;2023-09-19T01:51:42;16.60;99.90
7512;DHT22;9999;48.780;9.146;2023-09-19T01:54:12;16.60;99.90
7512;DHT22;9999;48.780;9.146;2023-09-19T01:56:59;16.60;99.90
7512;DHT22;9999;48.780;9.146;2023-09-19T01:59:35;16.60;99.90
7512;DHT22;9999;48.780;9.146;2023-09-19T02:02:05;16.60;99.90
7512;DHT22;9999;48.780;9.146;2023-09-19T02:04:34;16.50;99.90
7512;DHT22;9999;48.780;9.146;2023-09-19T02:07:02;16.50;99.90
7512;DHT22;9999;48.780;9.146;2023-09-19T02:09:31;16.50;99.90
7512;DHT22;9999;48.780;9.146;2023-09-19T02:12:00;16.50;99.90
7512;DHT22;9999;48.780;9.146;2023-09-19T02:14:30;16.50;99.90
7512;DHT22;9999;48.780;9.146;2023-09-19T02:16:57;16.50;99.90
7512;DHT22;9999;48.780;9.146;2023-09-19T02:19:26;16.50;99.90
7512;DHT22;9999;48.780;9.146;2023-09-19T02:21:53;16.40;99.90
7512;DHT22;9999;48.780;9.146;2023-09-19T02:24:21;16.40;99.90
7512;DHT22;9999;48.780;9.146;2023-09-19T02:26:52;16.40;99.90
7512;DHT22;9999;48.780;9.146;2023-09-19T02:29:20;16.40;99.90
7512;DHT22;9999;48.780;9.146;2023-09-19T02:31:48;16.40;99.90
7512;DHT22;9999;48.780;9.146;2023-09-19T02:34:15;16.30;99.90
7512;DHT22;9999;48.780;9.146;2023-09-19T02:36:44;16.30;99.90
7512;DHT22;9999;48.780;9.146;2023-09-19T02:39:11;16.30;99.90
7512;DHT22;9999;48.780;9.146;2023-09-19T02:41:38;16.30;99.90
7512;DHT22;9999;48.780;9.146;2023-09-19T02:44:07;16.20;99.90
7512;DHT22;9999;48.780;9.146;2023-09-19T02:46:34;16.20;99.90
7512;DHT22;9999;48.780;9.146;2023-09-19T02:49:02;16.20;99.90
7512;DHT22;9999;48.780;9.146;2023-09-19T02:51:30;16.20;99.90
7512;DHT22;9999;48.780;9.146;2023-09-19T02:53:59;16.10;99.90
7512;DHT22;9999;48.780;9.146;2023-09-19T02:56:26;16.10;99.90
7512;DHT22;9999;48.780;9.146;2023-09-19T02:58:53;16.10;99.90
7512;DHT22;9999;48.780;9.146;2023-09-19T03:01:21;16.10;99.90
7512;DHT22;9999;48.780;9.146;2023-09-19T03:03:48;16.10;99.90
7512;DHT22;9999;48.780;9.146;2023-09-19T03:06:15;16.10;99.90
7512;DHT22;9999;48.780;9.146;2023-09-19T03:08:43;16.10;99.90
7512;DHT22;9999;48.780;9.146;2023-09-19T03:11:12;16.20;99.90
7512;DHT22;9999;48.780;9.146;2023-09-19T03:13:42;16.20;99.90
7512;DHT22;9999;48.780;9.146;2023-09-19T03:16:10;16.20;99.90
7512;DHT22;9999;48.780;9.146;2023-09-19T03:18:41;16.20;99.90
7512;DHT22;9999;48.780;9.146;2023-09-19T03:21:07;16.20;99.90
7512;DHT22;9999;48.780;9.146;2023-09-19T03:23:34;16.20;99.90
7512;DHT22;9999;48.780;9.146;2023-09-19T03:26:01;16.20;99.90
7512;DHT22;9999;48.780;9.146;2023-09-19T03:28:33;16.20;99.90
7512;DHT22;9999;48.780;9.146;2023-09-19T03:31:00;16.20;99.90
7512;DHT22;9999;48.780;9.146;2023-09-19T03:33:28;16.30;99.90
7512;DHT22;9999;48.780;9.146;2023-09-19T03:35:57;16.30;99.90
7512;DHT22;9999;48.780;9.146;2023-09-19T03:38:25;16.30;99.90
7512;DHT22;9999;48.780;9.146;2023-09-19T03:40:52;16.30;99.90
7512;DHT22;9999;48.780;9.146;2023-09-19T03:43:18;16.40;99.90
7512;DHT22;9999;48.780;9.146;2023-09-19T03:45:47;16.40;99.90
7512;DHT22;9999;48.780;9.146;2023-09-19T03:48:15;16.40;99.90
7512;DHT22;9999;48.780;9.146;2023-09-19T03:50:41;16.40;99.90
7512;DHT22;9999;48.780;9.146;2023-09-19T03:53:09;16.50;99.90
7512;DHT22;9999;48.780;9.146;2023-09-19T03:55:36;16.50;99.90
7512;DHT22;9999;48.780;9.146;2023-09-19T03:58:05;16.50;99.90
7512;DHT22;9999;48.780;9.146;2023-09-19T04:00:32;16.40;99.90
7512;DHT22;9999;48.780;9.146;2023-09-19T04:03:01;16.40;99.90
7512;DHT22;9999;48.780;9.146;2023-09-19T04:05:31;16.40;99.90
7512;DHT22;9999;48.780;9.146;2023-09-19T04:07:58;16.40;99.90
7512;DHT22;9999;48.780;9.146;2023-09-19T04:10:25;16.40;99.90
7512;DHT22;9999;48.780;9.146;2023-09-19T04:12:54;16.40;99.90
7512;DHT22;9999;48.780;9.146;2023-09-19T04:15:22;16.30;99.90
7512;DHT22;9999;48.780;9.146;2023-09-19T04:17:50;16.40;99.90
7512;DHT22;9999;48.780;9.146;2023-09-19T04:20:19;16.40;99.90
7512;DHT22;9999;48.780;9.146;2023-09-19T04:22:48;16.50;99.90
7512;DHT22;9999;48.780;9.146;2023-09-19T04:25:16;16.50;99.90
7512;DHT22;9999;48.780;9.146;2023-09-19T04:27:44;16.50;99.90
7512;DHT22;9999;48.780;9.146;2023-09-19T04:30:12;16.50;99.90
7512;DHT22;9999;48.780;9.146;2023-09-19T04:32:40;16.50;99.90
7512;DHT22;9999;48.780;9.146;2023-09-19T04:35:08;16.50;99.90
7512;DHT22;9999;48.780;9.146;2023-09-19T04:37:39;16.50;99.90
7512;DHT22;9999;48.780;9.146;2023-09-19T04:40:08;16.50;99.90
7512;DHT22;9999;48.780;9.146;2023-09-19T04:42:39;16.50;99.90
7512;DHT22;9999;48.780;9.146;2023-09-19T04:45:07;16.40;99.90
7512;DHT22;9999;48.780;9.146;2023-09-19T04:47:36;16.30;99.90
7512;DHT22;9999;48.780;9.146;2023-09-19T04:50:06;16.40;99.90
7512;DHT22;9999;48.780;9.146;2023-09-19T04:52:33;16.40;99.90
7512;DHT22;9999;48.780;9.146;2023-09-19T04:55:01;16.50;99.90
7512;DHT22;9999;48.780;9.146;2023-09-19T04:57:28;16.50;99.90
7512;DHT22;9999;48.780;9.146;2023-09-19T04:59:57;16.50;99.90
7512;DHT22;9999;48.780;9.146;2023-09-19T05:02:24;16.50;99.90
7512;DHT22;9999;48.780;9.146;2023-09-19T05:04:50;16.50;99.90
7512;DHT22;9999;48.780;9.146;2023-09-19T05:07:19;16.40;99.90
7512;DHT22;9999;48.780;9.146;2023-09-19T05:09:47;16.40;99.90
7512;DHT22;9999;48.780;9.146;2023-09-19T05:12:15;16.30;99.90
7512;DHT22;9999;48.780;9.146;2023-09-19T05:14:45;16.20;99.90
7512;DHT22;9999;48.780;9.146;2023-09-19T05:17:13;16.10;99.90
7512;DHT22;9999;48.780;9.146;2023-09-19T05:19:42;16.10;99.90
7512;DHT22;9999;48.780;9.146;2023-09-19T05:22:09;16.10;99.90
7512;DHT22;9999;48.780;9.146;2023-09-19T05:24:38;16.10;99.90
7512;DHT22;9999;48.780;9.146;2023-09-19T05:27:05;16.10;99.90
7512;DHT22;9999;48.780;9.146;2023-09-19T05:29:34;16.10;99.90
7512;DHT22;9999;48.780;9.146;2023-09-19T05:32:01;16.00;99.90
7512;DHT22;9999;48.780;9.146;2023-09-19T05:34:29;16.00;99.90
7512;DHT22;9999;48.780;9.146;2023-09-19T05:36:56;15.90;99.90
7512;DHT22;9999;48.780;9.146;2023-09-19T05:39:23;15.90;99.90
7512;DHT22;9999;48.780;9.146;2023-09-19T05:41:49;15.90;99.90
7512;DHT22;9999;48.780;9.146;2023-09-19T05:44:16;15.90;99.90
7512;DHT22;9999;48.780;9.146;2023-09-19T05:46:44;15.90;99.90
7512;DHT22;9999;48.780;9.146;2023-09-19T05:49:11;15.90;99.90
7512;DHT22;9999;48.780;9.146;2023-09-19T05:51:38;15.90;99.90
7512;DHT22;9999;48.780;9.146;2023-09-19T05:54:05;15.80;99.90
7512;DHT22;9999;48.780;9.146;2023-09-19T05:56:32;15.90;99.90
7512;DHT22;9999;48.780;9.146;2023-09-19T05:58:59;15.90;99.90
7512;DHT22;9999;48.780;9.146;2023-09-19T06:01:25;15.90;99.90
7512;DHT22;9999;48.780;9.146;2023-09-19T06:03:54;15.90;99.90
7512;DHT22;9999;48.780;9.146;2023-09-19T06:06:21;15.90;99.90
7512;DHT22;9999;48.780;9.146;2023-09-19T06:08:49;15.90;99.90
7512;DHT22;9999;48.780;9.146;2023-09-19T06:11:16;15.90;99.90
7512;DHT22;9999;48.780;9.146;2023-09-19T06:13:45;15.80;99.90
7512;DHT22;9999;48.780;9.146;2023-09-19T06:16:13;15.80;99.90
7512;DHT22;9999;48.780;9.146;2023-09-19T06:18:40;15.70;99.90
7512;DHT22;9999;48.780;9.146;2023-09-19T06:21:08;15.80;99.90
7512;DHT22;9999;48.780;9.146;2023-09-19T06:23:35;15.70;99.90
7512;DHT22;9999;48.780;9.146;2023-09-19T06:26:02;15.70;99.90
7512;DHT22;9999;48.780;9.146;2023-09-19T06:28:32;15.70;99.90
7512;DHT22;9999;48.780;9.146;2023-09-19T06:30:59;15.60;99.90
7512;DHT22;9999;48.780;9.146;2023-09-19T06:33:26;15.60;99.90
7512;DHT22;9999;48.780;9.146;2023-09-19T06:35:52;15.50;99.90
7512;DHT22;9999;48.780;9.146;2023-09-19T06:38:26;15.50;99.90
7512;DHT22;9999;48.780;9.146;2023-09-19T06:40:53;15.60;99.90
7512;DHT22;9999;48.780;9.146;2023-09-19T06:43:21;15.70;99.90
7512;DHT22;9999;48.780;9.146;2023-09-19T06:45:47;15.70;99.90
7512;DHT22;9999;48.780;9.146;2023-09-19T06:48:14;15.70;99.90
7512;DHT22;9999;48.780;9.146;2023-09-19T06:50:52;15.70;99.90
7512;DHT22;9999;48.780;9.146;2023-09-19T06:53:31;15.80;99.90
7512;DHT22;9999;48.780;9.146;2023-09-19T06:55:58;15.80;99.90
7512;DHT22;9999;48.780;9.146;2023-09-19T06:58:26;15.90;99.90
7512;DHT22;9999;48.780;9.146;2023-09-19T07:00:52;16.00;99.90
7512;DHT22;9999;48.780;9.146;2023-09-19T07:03:19;16.00;99.90
7512;DHT22;9999;48.780;9.146;2023-09-19T07:05:48;16.10;99.90
7512;DHT22;9999;48.780;9.146;2023-09-19T07:08:15;16.20;99.90
7512;DHT22;9999;48.780;9.146;2023-09-19T07:10:45;16.40;99.90
7512;DHT22;9999;48.780;9.146;2023-09-19T07:13:15;16.40;99.90
7512;DHT22;9999;48.780;9.146;2023-09-19T07:15:43;16.40;99.90
7512;DHT22;9999;48.780;9.146;2023-09-19T07:18:16;16.40;99.90
7512;DHT22;9999;48.780;9.146;2023-09-19T07:20:43;16.40;99.90
7512;DHT22;9999;48.780;9.146;2023-09-19T07:23:15;16.40;99.90
7512;DHT22;9999;48.780;9.146;2023-09-19T07:25:45;16.40;99.90
7512;DHT22;9999;48.780;9.146;2023-09-19T07:28:12;16.40;99.90
7512;DHT22;9999;48.780;9.146;2023-09-19T07:30:39;16.50;99.90
7512;DHT22;9999;48.780;9.146;2023-09-19T07:33:07;16.50;99.90
7512;DHT22;9999;48.780;9.146;2023-09-19T07:35:36;16.50;99.90
7512;DHT22;9999;48.780;9.146;2023-09-19T07:38:05;16.50;99.90
7512;DHT22;9999;48.780;9.146;2023-09-19T07:40:32;16.70;99.90
7512;DHT22;9999;48.780;9.146;2023-09-19T07:43:00;16.80;99.90
7512;DHT22;9999;48.780;9.146;2023-09-19T07:45:28;17.00;99.90
7512;DHT22;9999;48.780;9.146;2023-09-19T07:47:55;17.10;99.90
7512;DHT22;9999;48.780;9.146;2023-09-19T07:50:22;17.10;99.90
7512;DHT22;9999;48.780;9.146;2023-09-19T07:52:50;17.20;99.90
7512;DHT22;9999;48.780;9.146;2023-09-19T07:55:18;17.10;99.90
7512;DHT22;9999;48.780;9.146;2023-09-19T07:57:49;17.10;99.90
7512;DHT22;9999;48.780;9.146;2023-09-19T08:00:17;17.00;99.90
7512;DHT22;9999;48.780;9.146;2023-09-19T08:02:44;17.10;99.90
7512;DHT22;9999;48.780;9.146;2023-09-19T08:05:12;17.20;99.90
7512;DHT22;9999;48.780;9.146;2023-09-19T08:07:42;17.20;99.90
7512;DHT22;9999;48.780;9.146;2023-09-19T08:10:10;17.30;99.90
7512;DHT22;9999;48.780;9.146;2023-09-19T08:12:39;17.40;99.90
7512;DHT22;9999;48.780;9.146;2023-09-19T08:15:12;17.50;99.90
7512;DHT22;9999;48.780;9.146;2023-09-19T08:17:42;17.50;99.90
7512;DHT22;9999;48.780;9.146;2023-09-19T08:20:15;17.50;99.90
7512;DHT22;9999;48.780;9.146;2023-09-19T08:22:44;17.50;99.90
7512;DHT22;9999;48.780;9.146;2023-09-19T08:25:13;17.50;99.90
7512;DHT22;9999;48.780;9.146;2023-09-19T08:27:40;17.50;99.90
7512;DHT22;9999;48.780;9.146;2023-09-19T08:30:10;17.60;99.90
7512;DHT22;9999;48.780;9.146;2023-09-19T08:32:37;17.50;99.90
7512;DHT22;9999;48.780;9.146;2023-09-19T08:35:06;17.60;99.90
7512;DHT22;9999;48.780;9.146;2023-09-19T08:37:34;17.50;99.90
7512;DHT22;9999;48.780;9.146;2023-09-19T08:40:01;17.70;99.90
7512;DHT22;9999;48.780;9.146;2023-09-19T08:42:28;17.60;99.90
7512;DHT22;9999;48.780;9.146;2023-09-19T08:44:55;17.70;99.90
7512;DHT22;9999;48.780;9.146;2023-09-19T08:47:36;17.60;99.90
7512;DHT22;9999;48.780;9.146;2023-09-19T08:50:13;17.60;99.90
7512;DHT22;9999;48.780;9.146;2023-09-19T08:52:43;17.60;99.90
7512;DHT22;9999;48.780;9.146;2023-09-19T08:55:12;17.60;99.90
7512;DHT22;9999;48.780;9.146;2023-09-19T08:57:46;17.60;99.90
7512;DHT22;9999;48.780;9.146;2023-09-19T09:00:15;17.70;99.90
7512;DHT22;9999;48.780;9.146;2023-09-19T09:02:44;17.70;99.90
7512;DHT22;9999;48.780;9.146;2023-09-19T09:05:14;17.80;99.90
7512;DHT22;9999;48.780;9.146;2023-09-19T09:07:43;17.90;99.90
7512;DHT22;9999;48.780;9.146;2023-09-19T09:10:11;18.10;99.90
7512;DHT22;9999;48.780;9.146;2023-09-19T09:12:38;18.10;99.90
7512;DHT22;9999;48.780;9.146;2023-09-19T09:15:07;18.10;99.90
7512;DHT22;9999;48.780;9.146;2023-09-19T09:17:37;18.20;99.90
7512;DHT22;9999;48.780;9.146;2023-09-19T09:20:05;18.20;99.90
7512;DHT22;9999;48.780;9.146;2023-09-19T09:22:37;18.30;99.90
7512;DHT22;9999;48.780;9.146;2023-09-19T09:25:06;18.30;99.90
7512;DHT22;9999;48.780;9.146;2023-09-19T09:27:32;18.30;99.90
7512;DHT22;9999;48.780;9.146;2023-09-19T09:29:59;18.30;99.90
7512;DHT22;9999;48.780;9.146;2023-09-19T09:32:28;18.30;99.90
7512;DHT22;9999;48.780;9.146;2023-09-19T09:34:56;18.40;99.90
7512;DHT22;9999;48.780;9.146;2023-09-19T09:37:24;18.60;99.90
7512;DHT22;9999;48.780;9.146;2023-09-19T09:39:54;18.80;99.90
7512;DHT22;9999;48.780;9.146;2023-09-19T09:42:31;18.90;99.90
7512;DHT22;9999;48.780;9.146;2023-09-19T09:45:15;19.00;99.90
7512;DHT22;9999;48.780;9.146;2023-09-19T09:47:47;19.00;99.90
7512;DHT22;9999;48.780;9.146;2023-09-19T09:50:30;19.10;99.90
7512;DHT22;9999;48.780;9.146;2023-09-19T09:53:23;19.20;99.90
7512;DHT22;9999;48.780;9.146;2023-09-19T09:56:04;19.30;99.90
7512;DHT22;9999;48.780;9.146;2023-09-19T09:58:32;19.30;99.90
7512;DHT22;9999;48.780;9.146;2023-09-19T10:01:01;19.40;99.90
7512;DHT22;9999;48.780;9.146;2023-09-19T10:03:35;19.40;99.90
7512;DHT22;9999;48.780;9.146;2023-09-19T10:06:06;19.40;99.90
7512;DHT22;9999;48.780;9.146;2023-09-19T10:09:00;19.50;99.90
7512;DHT22;9999;48.780;9.146;2023-09-19T10:11:34;19.60;99.90
7512;DHT22;9999;48.780;9.146;2023-09-19T10:14:03;19.50;99.90
7512;DHT22;9999;48.780;9.146;2023-09-19T10:16:32;19.40;99.90
7512;DHT22;9999;48.780;9.146;2023-09-19T10:19:02;19.20;99.90
7512;DHT22;9999;48.780;9.146;2023-09-19T10:21:32;19.10;99.90
7512;DHT22;9999;48.780;9.146;2023-09-19T10:24:03;19.10;99.90
7512;DHT22;9999;48.780;9.146;2023-09-19T10:26:36;19.20;99.90
7512;DHT22;9999;48.780;9.146;2023-09-19T10:29:06;19.20;99.90
7512;DHT22;9999;48.780;9.146;2023-09-19T10:31:34;19.10;99.90
7512;DHT22;9999;48.780;9.146;2023-09-19T10:34:06;19.30;99.90
7512;DHT22;9999;48.780;9.146;2023-09-19T10:36:36;19.40;99.90
7512;DHT22;9999;48.780;9.146;2023-09-19T10:39:05;19.60;99.90
7512;DHT22;9999;48.780;9.146;2023-09-19T10:41:36;19.40;99.90
7512;DHT22;9999;48.780;9.146;2023-09-19T10:44:04;19.30;99.90
7512;DHT22;9999;48.780;9.146;2023-09-19T10:46:32;19.20;99.90
7512;DHT22;9999;48.780;9.146;2023-09-19T10:48:59;19.30;99.90
7512;DHT22;9999;48.780;9.146;2023-09-19T10:51:30;19.60;99.90
7512;DHT22;9999;48.780;9.146;2023-09-19T10:54:04;19.90;99.90
7512;DHT22;9999;48.780;9.146;2023-09-19T10:56:37;20.10;99.90
7512;DHT22;9999;48.780;9.146;2023-09-19T10:59:08;20.30;99.90
7512;DHT22;9999;48.780;9.146;2023-09-19T11:01:46;20.40;99.90
7512;DHT22;9999;48.780;9.146;2023-09-19T11:04:37;20.20;99.90
7512;DHT22;9999;48.780;9.146;2023-09-19T11:07:06;19.90;99.90
7512;DHT22;9999;48.780;9.146;2023-09-19T11:09:47;19.50;99.90
7512;DHT22;9999;48.780;9.146;2023-09-19T11:12:49;19.50;99.90
7512;DHT22;9999;48.780;9.146;2023-09-19T11:16:02;19.80;99.90
7512;DHT22;9999;48.780;9.146;2023-09-19T11:18:55;20.20;99.90
7512;DHT22;9999;48.780;9.146;2023-09-19T11:21:52;20.50;99.90
7512;DHT22;9999;48.780;9.146;2023-09-19T11:24:29;20.60;99.90
7512;DHT22;9999;48.780;9.146;2023-09-19T11:27:13;20.80;99.90
7512;DHT22;9999;48.780;9.146;2023-09-19T11:29:44;21.10;99.90
7512;DHT22;9999;48.780;9.146;2023-09-19T11:32:11;21.10;99.90
7512;DHT22;9999;48.780;9.146;2023-09-19T11:34:42;21.30;99.90
7512;DHT22;9999;48.780;9.146;2023-09-19T11:40:35;21.30;99.90
7512;DHT22;9999;48.780;9.146;2023-09-19T11:43:29;21.30;99.90
7512;DHT22;9999;48.780;9.146;2023-09-19T11:46:07;21.20;99.90
7512;DHT22;9999;48.780;9.146;2023-09-19T11:48:41;21.30;99.90
7512;DHT22;9999;48.780;9.146;2023-09-19T11:51:17;21.40;99.90
7512;DHT22;9999;48.780;9.146;2023-09-19T11:53:49;21.60;99.90
7512;DHT22;9999;48.780;9.146;2023-09-19T11:56:18;21.70;99.90
7512;DHT22;9999;48.780;9.146;2023-09-19T11:58:46;21.60;99.90
7512;DHT22;9999;48.780;9.146;2023-09-19T12:01:22;21.70;99.90
7512;DHT22;9999;48.780;9.146;2023-09-19T12:03:53;21.90;99.90
7512;DHT22;9999;48.780;9.146;2023-09-19T12:06:23;21.80;99.90
7512;DHT22;9999;48.780;9.146;2023-09-19T12:08:50;21.90;99.90
7512;DHT22;9999;48.780;9.146;2023-09-19T12:11:22;21.80;99.90
7512;DHT22;9999;48.780;9.146;2023-09-19T12:13:50;21.60;99.90
7512;DHT22;9999;48.780;9.146;2023-09-19T12:16:20;21.90;99.90
7512;DHT22;9999;48.780;9.146;2023-09-19T12:18:50;22.20;99.90
7512;DHT22;9999;48.780;9.146;2023-09-19T12:21:25;22.40;99.90
7512;DHT22;9999;48.780;9.146;2023-09-19T12:24:13;22.50;99.90
7512;DHT22;9999;48.780;9.146;2023-09-19T12:26:45;22.50;99.90
7512;DHT22;9999;48.780;9.146;2023-09-19T12:29:18;22.60;99.90
7512;DHT22;9999;48.780;9.146;2023-09-19T12:31:51;22.70;99.90
7512;DHT22;9999;48.780;9.146;2023-09-19T12:34:20;22.70;99.90
7512;DHT22;9999;48.780;9.146;2023-09-19T12:36:48;22.60;99.90
7512;DHT22;9999;48.780;9.146;2023-09-19T12:39:24;22.60;99.90
7512;DHT22;9999;48.780;9.146;2023-09-19T12:41:52;22.80;99.90
7512;DHT22;9999;48.780;9.146;2023-09-19T12:44:20;22.80;99.90
7512;DHT22;9999;48.780;9.146;2023-09-19T12:46:46;22.80;99.90
7512;DHT22;9999;48.780;9.146;2023-09-19T12:49:18;23.00;99.90
7512;DHT22;9999;48.780;9.146;2023-09-19T12:51:46;23.20;99.90
7512;DHT22;9999;48.780;9.146;2023-09-19T12:54:13;23.30;99.90
7512;DHT22;9999;48.780;9.146;2023-09-19T12:56:42;23.20;99.90
7512;DHT22;9999;48.780;9.146;2023-09-19T12:59:11;23.30;99.90
7512;DHT22;9999;48.780;9.146;2023-09-19T13:01:39;23.30;99.90
7512;DHT22;9999;48.780;9.146;2023-09-19T13:04:11;23.10;99.90
7512;DHT22;9999;48.780;9.146;2023-09-19T13:06:41;23.20;99.90
7512;DHT22;9999;48.780;9.146;2023-09-19T13:09:10;23.10;99.90
7512;DHT22;9999;48.780;9.146;2023-09-19T13:11:38;22.90;99.90
7512;DHT22;9999;48.780;9.146;2023-09-19T13:14:17;22.80;99.30
7512;DHT22;9999;48.780;9.146;2023-09-19T13:16:54;22.50;99.90
7512;DHT22;9999;48.780;9.146;2023-09-19T13:19:39;22.30;99.90
7512;DHT22;9999;48.780;9.146;2023-09-19T13:22:38;22.40;99.90
7512;DHT22;9999;48.780;9.146;2023-09-19T13:25:06;22.70;99.90
7512;DHT22;9999;48.780;9.146;2023-09-19T13:27:33;22.90;99.90
7512;DHT22;9999;48.780;9.146;2023-09-19T13:30:00;22.90;99.90
7512;DHT22;9999;48.780;9.146;2023-09-19T13:32:27;23.00;99.90
7512;DHT22;9999;48.780;9.146;2023-09-19T13:34:54;22.70;99.90
7512;DHT22;9999;48.780;9.146;2023-09-19T13:37:21;22.90;99.90
7512;DHT22;9999;48.780;9.146;2023-09-19T13:39:49;23.00;99.70
7512;DHT22;9999;48.780;9.146;2023-09-19T13:42:16;23.20;99.90
7512;DHT22;9999;48.780;9.146;2023-09-19T13:44:44;22.90;99.20
7512;DHT22;9999;48.780;9.146;2023-09-19T13:47:11;22.70;99.10
7512;DHT22;9999;48.780;9.146;2023-09-19T13:49:39;22.50;98.90
7512;DHT22;9999;48.780;9.146;2023-09-19T13:52:06;22.30;99.90
7512;DHT22;9999;48.780;9.146;2023-09-19T13:54:32;22.40;99.90
7512;DHT22;9999;48.780;9.146;2023-09-19T13:57:01;22.10;99.60
7512;DHT22;9999;48.780;9.146;2023-09-19T13:59:27;22.20;99.90
7512;DHT22;9999;48.780;9.146;2023-09-19T14:01:56;22.60;99.90
7512;DHT22;9999;48.780;9.146;2023-09-19T14:04:23;22.90;99.60
7512;DHT22;9999;48.780;9.146;2023-09-19T14:06:50;23.10;98.80
7512;DHT22;9999;48.780;9.146;2023-09-19T14:09:17;23.00;97.30
7512;DHT22;9999;48.780;9.146;2023-09-19T14:11:45;22.80;97.30
7512;DHT22;9999;48.780;9.146;2023-09-19T14:14:14;22.50;99.10
7512;DHT22;9999;48.780;9.146;2023-09-19T14:16:41;22.20;98.40
7512;DHT22;9999;48.780;9.146;2023-09-19T14:19:07;22.40;98.40
7512;DHT22;9999;48.780;9.146;2023-09-19T14:21:34;22.40;99.50
7512;DHT22;9999;48.780;9.146;2023-09-19T14:24:05;22.50;99.90
7512;DHT22;9999;48.780;9.146;2023-09-19T14:26:34;22.50;98.50
7512;DHT22;9999;48.780;9.146;2023-09-19T14:29:01;22.50;98.40
7512;DHT22;9999;48.780;9.146;2023-09-19T14:31:29;22.50;98.00
7512;DHT22;9999;48.780;9.146;2023-09-19T14:33:57;22.30;97.60
7512;DHT22;9999;48.780;9.146;2023-09-19T14:36:25;22.20;97.20
7512;DHT22;9999;48.780;9.146;2023-09-19T14:38:55;22.10;99.90
7512;DHT22;9999;48.780;9.146;2023-09-19T14:41:23;22.00;99.80
7512;DHT22;9999;48.780;9.146;2023-09-19T14:43:51;22.10;99.10
7512;DHT22;9999;48.780;9.146;2023-09-19T14:46:17;22.10;99.30
7512;DHT22;9999;48.780;9.146;2023-09-19T14:48:46;22.30;99.90
7512;DHT22;9999;48.780;9.146;2023-09-19T14:51:13;22.40;98.80
7512;DHT22;9999;48.780;9.146;2023-09-19T14:53:41;22.50;97.90
7512;DHT22;9999;48.780;9.146;2023-09-19T14:56:09;22.50;97.80
7512;DHT22;9999;48.780;9.146;2023-09-19T14:58:36;22.40;97.40
7512;DHT22;9999;48.780;9.146;2023-09-19T15:01:05;22.50;98.20
7512;DHT22;9999;48.780;9.146;2023-09-19T15:03:33;22.40;97.20
7512;DHT22;9999;48.780;9.146;2023-09-19T15:06:02;22.30;97.30
7512;DHT22;9999;48.780;9.146;2023-09-19T15:08:30;22.30;96.80
7512;DHT22;9999;48.780;9.146;2023-09-19T15:10:57;22.20;96.40
7512;DHT22;9999;48.780;9.146;2023-09-19T15:13:24;22.10;98.30
7512;DHT22;9999;48.780;9.146;2023-09-19T15:15:58;22.00;96.90
7512;DHT22;9999;48.780;9.146;2023-09-19T15:18:25;21.90;98.30
7512;DHT22;9999;48.780;9.146;2023-09-19T15:20:52;21.80;97.00
7512;DHT22;9999;48.780;9.146;2023-09-19T15:23:21;21.80;98.10
7512;DHT22;9999;48.780;9.146;2023-09-19T15:25:48;21.80;98.20
7512;DHT22;9999;48.780;9.146;2023-09-19T15:28:15;21.70;97.50
7512;DHT22;9999;48.780;9.146;2023-09-19T15:30:42;21.70;98.20
7512;DHT22;9999;48.780;9.146;2023-09-19T15:33:09;21.70;97.80
7512;DHT22;9999;48.780;9.146;2023-09-19T15:35:36;21.80;97.70
7512;DHT22;9999;48.780;9.146;2023-09-19T15:38:03;21.80;98.60
7512;DHT22;9999;48.780;9.146;2023-09-19T15:40:31;21.80;98.00
7512;DHT22;9999;48.780;9.146;2023-09-19T15:42:58;21.80;97.30
7512;DHT22;9999;48.780;9.146;2023-09-19T15:45:26;21.70;96.80
7512;DHT22;9999;48.780;9.146;2023-09-19T15:47:53;21.60;98.50
7512;DHT22;9999;48.780;9.146;2023-09-19T15:50:20;21.60;99.20
7512;DHT22;9999;48.780;9.146;2023-09-19T15:52:52;21.40;99.10
7512;DHT22;9999;48.780;9.146;2023-09-19T15:55:19;21.40;99.50
7512;DHT22;9999;48.780;9.146;2023-09-19T15:57:48;21.40;98.90
7512;DHT22;9999;48.780;9.146;2023-09-19T16:00:15;21.40;99.10
7512;DHT22;9999;48.780;9.146;2023-09-19T16:02:43;21.40;99.50
7512;DHT22;9999;48.780;9.146;2023-09-19T16:05:12;21.20;98.70
7512;DHT22;9999;48.780;9.146;2023-09-19T16:07:39;21.20;99.10
7512;DHT22;9999;48.780;9.146;2023-09-19T16:10:06;21.20;99.20
7512;DHT22;9999;48.780;9.146;2023-09-19T16:12:33;21.20;99.10
7512;DHT22;9999;48.780;9.146;2023-09-19T16:15:02;21.10;99.30
7512;DHT22;9999;48.780;9.146;2023-09-19T16:17:29;21.00;99.90
7512;DHT22;9999;48.780;9.146;2023-09-19T16:19:56;21.00;99.20
7512;DHT22;9999;48.780;9.146;2023-09-19T16:22:22;20.90;99.90